sensor_id;sensor_type;location;lat;lon;timestamp;pressure;altitude;pressure_sealevel;temperature;humidity
17230;BME280;8731;50.364;8.958;2022-10-31T00:04:14;100562.16;;;11.34;84.69
17230;BME280;8731;50.364;8.958;2022-10-31T00:08:38;100567.13;;;11.32;84.38
17230;BME280;8731;50.364;8.958;2022-10-31T00:13:00;100577.31;;;11.32;84.24
17230;BME280;8731;50.364;8.958;2022-10-31T00:17:22;100575.38;;;11.30;84.61
17230;BME280;8731;50.364;8.958;2022-10-31T00:21:45;100582.59;;;11.25;84.68
17230;BME280;8731;50.364;8.958;2022-10-31T00:26:09;100591.00;;;11.16;86.36
17230;BME280;8731;50.364;8.958;2022-10-31T00:30:31;100582.91;;;11.20;85.99
17230;BME280;8731;50.364;8.958;2022-10-31T00:34:54;100593.09;;;11.20;86.33
17230;BME280;8731;50.364;8.958;2022-10-31T00:39:17;100585.44;;;11.20;85.62
17230;BME280;8731;50.364;8.958;2022-10-31T00:43:40;100592.81;;;11.17;85.65
17230;BME280;8731;50.364;8.958;2022-10-31T00:48:03;100595.81;;;11.13;86.58
17230;BME280;8731;50.364;8.958;2022-10-31T00:52:26;100589.06;;;11.04;87.63
17230;BME280;8731;50.364;8.958;2022-10-31T00:56:49;100599.25;;;11.04;87.36
17230;BME280;8731;50.364;8.958;2022-10-31T01:01:13;100594.00;;;11.03;86.60
17230;BME280;8731;50.364;8.958;2022-10-31T01:05:35;100584.72;;;11.03;86.40
17230;BME280;8731;50.364;8.958;2022-10-31T01:09:58;100597.31;;;10.93;86.96
17230;BME280;8731;50.364;8.958;2022-10-31T01:14:21;100596.13;;;10.90;87.21
17230;BME280;8731;50.364;8.958;2022-10-31T01:18:45;100593.56;;;10.90;86.88
17230;BME280;8731;50.364;8.958;2022-10-31T01:23:08;100605.09;;;10.86;87.04
17230;BME280;8731;50.364;8.958;2022-10-31T01:27:31;100601.50;;;10.84;86.99
17230;BME280;8731;50.364;8.958;2022-10-31T01:31:53;100601.19;;;10.81;86.70
17230;BME280;8731;50.364;8.958;2022-10-31T01:36:19;100604.50;;;10.80;87.19
17230;BME280;8731;50.364;8.958;2022-10-31T01:40:44;100607.78;;;10.79;86.94
17230;BME280;8731;50.364;8.958;2022-10-31T01:45:10;100606.00;;;10.78;87.37
17230;BME280;8731;50.364;8.958;2022-10-31T01:49:37;100597.59;;;10.79;87.43
17230;BME280;8731;50.364;8.958;2022-10-31T01:54:08;100593.09;;;10.76;87.19
17230;BME280;8731;50.364;8.958;2022-10-31T01:58:34;100589.50;;;10.74;87.81
17230;BME280;8731;50.364;8.958;2022-10-31T02:02:56;100582.03;;;10.67;87.37
17230;BME280;8731;50.364;8.958;2022-10-31T02:07:24;100584.84;;;10.62;87.79
17230;BME280;8731;50.364;8.958;2022-10-31T02:11:55;100576.59;;;10.64;87.36
17230;BME280;8731;50.364;8.958;2022-10-31T02:16:20;100573.34;;;10.65;87.19
17230;BME280;8731;50.364;8.958;2022-10-31T02:20:49;100583.34;;;10.64;88.30
17230;BME280;8731;50.364;8.958;2022-10-31T02:25:42;100582.63;;;10.65;87.86
17230;BME280;8731;50.364;8.958;2022-10-31T02:30:21;100587.88;;;10.66;87.79
17230;BME280;8731;50.364;8.958;2022-10-31T02:34:55;100583.69;;;10.67;88.21
17230;BME280;8731;50.364;8.958;2022-10-31T02:39:31;100570.47;;;10.62;88.30
17230;BME280;8731;50.364;8.958;2022-10-31T02:44:05;100565.66;;;10.57;88.81
17230;BME280;8731;50.364;8.958;2022-10-31T02:48:35;100577.94;;;10.61;88.95
17230;BME280;8731;50.364;8.958;2022-10-31T02:53:02;100571.97;;;10.60;88.91
17230;BME280;8731;50.364;8.958;2022-10-31T02:57:27;100577.81;;;10.59;88.80
17230;BME280;8731;50.364;8.958;2022-10-31T03:02:09;100576.31;;;10.61;89.13
17230;BME280;8731;50.364;8.958;2022-10-31T03:06:45;100575.41;;;10.61;89.36
17230;BME280;8731;50.364;8.958;2022-10-31T03:11:13;100573.63;;;10.60;89.70
17230;BME280;8731;50.364;8.958;2022-10-31T03:15:39;100579.59;;;10.60;89.16
17230;BME280;8731;50.364;8.958;2022-10-31T03:20:06;100588.13;;;10.52;89.73
17230;BME280;8731;50.364;8.958;2022-10-31T03:24:35;100587.69;;;10.56;89.02
17230;BME280;8731;50.364;8.958;2022-10-31T03:29:05;100589.94;;;10.53;89.16
17230;BME280;8731;50.364;8.958;2022-10-31T03:33:35;100585.44;;;10.51;89.03
17230;BME280;8731;50.364;8.958;2022-10-31T03:38:00;100577.50;;;10.48;89.66
17230;BME280;8731;50.364;8.958;2022-10-31T03:42:30;100584.84;;;10.44;89.18
17230;BME280;8731;50.364;8.958;2022-10-31T03:46:57;100569.41;;;10.43;89.04
17230;BME280;8731;50.364;8.958;2022-10-31T03:51:24;100572.38;;;10.39;89.44
17230;BME280;8731;50.364;8.958;2022-10-31T03:55:57;100572.38;;;10.39;89.10
17230;BME280;8731;50.364;8.958;2022-10-31T04:00:26;100568.19;;;10.39;89.02
17230;BME280;8731;50.364;8.958;2022-10-31T04:04:50;100566.53;;;10.40;88.68
17230;BME280;8731;50.364;8.958;2022-10-31T04:09:13;100566.38;;;10.38;88.39
17230;BME280;8731;50.364;8.958;2022-10-31T04:13:39;100569.09;;;10.40;88.98
17230;BME280;8731;50.364;8.958;2022-10-31T04:18:08;100561.91;;;10.36;89.73
17230;BME280;8731;50.364;8.958;2022-10-31T04:22:32;100566.38;;;10.38;89.81
17230;BME280;8731;50.364;8.958;2022-10-31T04:26:54;100562.34;;;10.23;91.54
17230;BME280;8731;50.364;8.958;2022-10-31T04:31:18;100556.66;;;10.26;91.19
17230;BME280;8731;50.364;8.958;2022-10-31T04:35:43;100559.06;;;10.24;90.96
17230;BME280;8731;50.364;8.958;2022-10-31T04:40:08;100552.47;;;10.26;90.29
17230;BME280;8731;50.364;8.958;2022-10-31T04:44:49;100554.84;;;10.25;89.82
17230;BME280;8731;50.364;8.958;2022-10-31T04:49:12;100560.84;;;10.25;89.93
17230;BME280;8731;50.364;8.958;2022-10-31T04:53:35;100571.69;;;10.15;89.92
17230;BME280;8731;50.364;8.958;2022-10-31T04:58:19;100581.66;;;10.21;90.40
17230;BME280;8731;50.364;8.958;2022-10-31T05:02:43;100582.47;;;10.13;90.82
17230;BME280;8731;50.364;8.958;2022-10-31T05:07:06;100582.16;;;10.01;91.99
17230;BME280;8731;50.364;8.958;2022-10-31T05:11:28;100591.72;;;9.95;92.15
17230;BME280;8731;50.364;8.958;2022-10-31T05:16:04;100584.84;;;10.03;91.52
17230;BME280;8731;50.364;8.958;2022-10-31T05:20:32;100587.53;;;10.04;91.38
17230;BME280;8731;50.364;8.958;2022-10-31T05:25:22;100583.34;;;10.05;91.35
17230;BME280;8731;50.364;8.958;2022-10-31T05:29:46;100571.66;;;9.98;92.22
17230;BME280;8731;50.364;8.958;2022-10-31T05:34:10;100579.00;;;10.04;91.37
17230;BME280;8731;50.364;8.958;2022-10-31T05:38:51;100574.97;;;10.06;91.03
17230;BME280;8731;50.364;8.958;2022-10-31T05:43:24;100567.94;;;10.12;91.91
17230;BME280;8731;50.364;8.958;2022-10-31T05:47:52;100573.50;;;10.16;92.41
17230;BME280;8731;50.364;8.958;2022-10-31T05:52:35;100577.13;;;10.19;92.90
17230;BME280;8731;50.364;8.958;2022-10-31T05:57:20;100571.84;;;10.17;94.44
17230;BME280;8731;50.364;8.958;2022-10-31T06:01:43;100576.38;;;10.20;95.18
17230;BME280;8731;50.364;8.958;2022-10-31T06:06:23;100586.44;;;10.27;94.20
17230;BME280;8731;50.364;8.958;2022-10-31T06:10:47;100574.47;;;10.26;95.56
17230;BME280;8731;50.364;8.958;2022-10-31T06:15:16;100570.72;;;10.22;95.29
17230;BME280;8731;50.364;8.958;2022-10-31T06:19:39;100573.31;;;9.98;100.00
17230;BME280;8731;50.364;8.958;2022-10-31T06:24:03;100566.50;;;9.81;100.00
17230;BME280;8731;50.364;8.958;2022-10-31T06:28:48;100574.06;;;10.05;99.30
17230;BME280;8731;50.364;8.958;2022-10-31T06:33:29;100579.75;;;10.03;98.60
17230;BME280;8731;50.364;8.958;2022-10-31T06:37:55;100576.63;;;10.14;96.98
17230;BME280;8731;50.364;8.958;2022-10-31T06:42:26;100575.47;;;10.19;96.24
17230;BME280;8731;50.364;8.958;2022-10-31T06:46:50;100578.22;;;10.21;95.73
17230;BME280;8731;50.364;8.958;2022-10-31T06:51:30;100574.72;;;10.20;95.79
17230;BME280;8731;50.364;8.958;2022-10-31T06:55:55;100585.84;;;10.29;95.63
17230;BME280;8731;50.364;8.958;2022-10-31T07:00:18;100581.81;;;10.23;95.81
17230;BME280;8731;50.364;8.958;2022-10-31T07:04:50;100586.75;;;10.21;96.13
17230;BME280;8731;50.364;8.958;2022-10-31T07:09:13;100578.38;;;10.39;95.38
17230;BME280;8731;50.364;8.958;2022-10-31T07:13:35;100566.28;;;10.45;94.75
17230;BME280;8731;50.364;8.958;2022-10-31T07:18:01;100577.81;;;10.42;94.63
17230;BME280;8731;50.364;8.958;2022-10-31T07:22:32;100588.84;;;10.25;95.79
17230;BME280;8731;50.364;8.958;2022-10-31T07:26:56;100591.69;;;10.28;96.29
17230;BME280;8731;50.364;8.958;2022-10-31T07:31:19;100592.78;;;10.48;95.38
17230;BME280;8731;50.364;8.958;2022-10-31T07:35:42;100592.34;;;10.60;94.50
17230;BME280;8731;50.364;8.958;2022-10-31T07:40:14;100588.91;;;10.68;93.75
17230;BME280;8731;50.364;8.958;2022-10-31T07:44:37;100590.41;;;10.66;93.79
17230;BME280;8731;50.364;8.958;2022-10-31T07:49:22;100592.22;;;10.67;93.68
17230;BME280;8731;50.364;8.958;2022-10-31T07:54:04;100582.03;;;10.76;93.38
17230;BME280;8731;50.364;8.958;2022-10-31T07:58:28;100589.19;;;10.63;93.52
17230;BME280;8731;50.364;8.958;2022-10-31T08:02:57;100578.41;;;10.83;93.69
17230;BME280;8731;50.364;8.958;2022-10-31T08:07:42;100584.84;;;10.88;93.77
17230;BME280;8731;50.364;8.958;2022-10-31T08:12:11;100587.72;;;10.99;94.48
17230;BME280;8731;50.364;8.958;2022-10-31T08:16:36;100589.06;;;11.13;94.49
17230;BME280;8731;50.364;8.958;2022-10-31T08:21:00;100593.38;;;11.23;94.39
17230;BME280;8731;50.364;8.958;2022-10-31T08:25:24;100586.19;;;11.36;93.34
17230;BME280;8731;50.364;8.958;2022-10-31T08:29:47;100581.44;;;11.58;93.70
17230;BME280;8731;50.364;8.958;2022-10-31T08:34:11;100586.88;;;11.52;91.23
17230;BME280;8731;50.364;8.958;2022-10-31T08:38:59;100577.03;;;11.83;92.10
17230;BME280;8731;50.364;8.958;2022-10-31T08:43:22;100573.91;;;11.85;92.13
17230;BME280;8731;50.364;8.958;2022-10-31T08:47:44;100568.75;;;11.94;92.26
17230;BME280;8731;50.364;8.958;2022-10-31T08:52:08;100563.28;;;12.08;92.91
17230;BME280;8731;50.364;8.958;2022-10-31T08:56:33;100562.69;;;12.29;92.10
17230;BME280;8731;50.364;8.958;2022-10-31T09:01:00;100561.56;;;12.45;90.91
17230;BME280;8731;50.364;8.958;2022-10-31T09:05:23;100553.22;;;12.56;91.08
17230;BME280;8731;50.364;8.958;2022-10-31T09:09:47;100554.84;;;12.74;90.16
17230;BME280;8731;50.364;8.958;2022-10-31T09:14:13;100553.00;;;12.82;90.45
17230;BME280;8731;50.364;8.958;2022-10-31T09:19:07;100547.28;;;12.84;89.83
17230;BME280;8731;50.364;8.958;2022-10-31T09:23:30;100548.88;;;12.55;88.57
17230;BME280;8731;50.364;8.958;2022-10-31T09:27:56;100541.03;;;12.53;88.54
17230;BME280;8731;50.364;8.958;2022-10-31T09:32:19;100544.22;;;12.88;89.73
17230;BME280;8731;50.364;8.958;2022-10-31T09:36:41;100536.78;;;12.81;87.94
17230;BME280;8731;50.364;8.958;2022-10-31T09:41:16;100530.34;;;13.24;88.47
17230;BME280;8731;50.364;8.958;2022-10-31T09:45:55;100535.28;;;13.41;88.19
17230;BME280;8731;50.364;8.958;2022-10-31T09:50:41;100527.44;;;13.59;88.60
17230;BME280;8731;50.364;8.958;2022-10-31T09:55:31;100532.03;;;13.63;88.57
17230;BME280;8731;50.364;8.958;2022-10-31T09:59:59;100518.00;;;13.88;88.11
17230;BME280;8731;50.364;8.958;2022-10-31T10:04:38;100522.78;;;14.04;87.96
17230;BME280;8731;50.364;8.958;2022-10-31T10:09:10;100517.78;;;14.36;87.20
17230;BME280;8731;50.364;8.958;2022-10-31T10:14:12;100506.66;;;14.46;86.09
17230;BME280;8731;50.364;8.958;2022-10-31T10:18:52;100499.41;;;14.82;85.30
17230;BME280;8731;50.364;8.958;2022-10-31T10:23:35;100504.50;;;15.24;84.29
17230;BME280;8731;50.364;8.958;2022-10-31T10:28:13;100498.47;;;15.78;84.18
17230;BME280;8731;50.364;8.958;2022-10-31T10:32:43;100494.13;;;16.10;83.72
17230;BME280;8731;50.364;8.958;2022-10-31T10:37:17;100491.63;;;16.45;82.65
17230;BME280;8731;50.364;8.958;2022-10-31T10:41:48;100481.81;;;16.75;81.18
17230;BME280;8731;50.364;8.958;2022-10-31T10:46:31;100477.78;;;17.02;80.49
17230;BME280;8731;50.364;8.958;2022-10-31T10:51:23;100470.13;;;17.63;79.39
17230;BME280;8731;50.364;8.958;2022-10-31T10:55:59;100462.06;;;17.95;79.12
17230;BME280;8731;50.364;8.958;2022-10-31T11:00:30;100458.91;;;18.37;78.93
17230;BME280;8731;50.364;8.958;2022-10-31T11:04:57;100444.06;;;18.47;77.47
17230;BME280;8731;50.364;8.958;2022-10-31T11:09:21;100434.72;;;18.88;77.02
17230;BME280;8731;50.364;8.958;2022-10-31T11:13:45;100428.88;;;19.32;75.92
17230;BME280;8731;50.364;8.958;2022-10-31T11:18:19;100420.47;;;19.49;74.97
17230;BME280;8731;50.364;8.958;2022-10-31T11:22:45;100421.38;;;19.78;73.91
17230;BME280;8731;50.364;8.958;2022-10-31T11:27:15;100403.22;;;20.06;73.89
17230;BME280;8731;50.364;8.958;2022-10-31T11:31:44;100403.75;;;20.00;75.52
17230;BME280;8731;50.364;8.958;2022-10-31T11:36:18;100407.31;;;20.32;72.95
17230;BME280;8731;50.364;8.958;2022-10-31T11:40:51;100380.91;;;20.52;74.21
17230;BME280;8731;50.364;8.958;2022-10-31T11:45:17;100377.34;;;20.65;73.42
17230;BME280;8731;50.364;8.958;2022-10-31T11:49:49;100374.50;;;20.31;72.66
17230;BME280;8731;50.364;8.958;2022-10-31T11:54:20;100367.47;;;20.74;71.47
17230;BME280;8731;50.364;8.958;2022-10-31T11:58:54;100364.59;;;20.38;74.44
17230;BME280;8731;50.364;8.958;2022-10-31T12:03:42;100350.84;;;20.85;72.11
17230;BME280;8731;50.364;8.958;2022-10-31T12:08:13;100342.56;;;21.07;71.39
17230;BME280;8731;50.364;8.958;2022-10-31T12:12:53;100336.56;;;21.24;71.41
17230;BME280;8731;50.364;8.958;2022-10-31T12:17:40;100334.88;;;20.77;74.06
17230;BME280;8731;50.364;8.958;2022-10-31T12:22:13;100331.78;;;21.15;70.93
17230;BME280;8731;50.364;8.958;2022-10-31T12:26:52;100332.97;;;20.90;70.78
17230;BME280;8731;50.364;8.958;2022-10-31T12:31:32;100322.63;;;20.90;73.43
17230;BME280;8731;50.364;8.958;2022-10-31T12:36:14;100306.28;;;20.91;74.19
17230;BME280;8731;50.364;8.958;2022-10-31T12:41:09;100299.72;;;20.65;73.61
17230;BME280;8731;50.364;8.958;2022-10-31T12:45:56;100290.38;;;20.52;74.79
17230;BME280;8731;50.364;8.958;2022-10-31T12:50:29;100286.59;;;20.78;73.16
17230;BME280;8731;50.364;8.958;2022-10-31T12:55:10;100286.59;;;20.62;72.73
17230;BME280;8731;50.364;8.958;2022-10-31T12:59:45;100280.66;;;20.48;73.32
17230;BME280;8731;50.364;8.958;2022-10-31T13:04:15;100271.22;;;20.34;73.84
17230;BME280;8731;50.364;8.958;2022-10-31T13:08:45;100258.91;;;20.30;74.23
17230;BME280;8731;50.364;8.958;2022-10-31T13:13:14;100253.25;;;20.20;74.79
17230;BME280;8731;50.364;8.958;2022-10-31T13:17:43;100266.00;;;20.17;75.38
17230;BME280;8731;50.364;8.958;2022-10-31T13:22:12;100261.78;;;19.59;77.84
17230;BME280;8731;50.364;8.958;2022-10-31T13:26:43;100249.84;;;19.90;76.86
17230;BME280;8731;50.364;8.958;2022-10-31T13:31:08;100250.41;;;19.55;78.23
17230;BME280;8731;50.364;8.958;2022-10-31T13:35:39;100241.56;;;19.52;78.51
17230;BME280;8731;50.364;8.958;2022-10-31T13:40:15;100222.97;;;19.57;78.69
17230;BME280;8731;50.364;8.958;2022-10-31T13:44:47;100209.19;;;19.14;81.56
17230;BME280;8731;50.364;8.958;2022-10-31T13:49:36;100200.84;;;19.04;81.82
17230;BME280;8731;50.364;8.958;2022-10-31T13:54:01;100189.28;;;19.26;80.83
17230;BME280;8731;50.364;8.958;2022-10-31T13:58:42;100186.34;;;19.20;81.19
17230;BME280;8731;50.364;8.958;2022-10-31T14:03:24;100177.09;;;18.94;82.64
17230;BME280;8731;50.364;8.958;2022-10-31T14:07:49;100162.13;;;19.33;80.82
17230;BME280;8731;50.364;8.958;2022-10-31T14:12:23;100170.13;;;19.38;80.76
17230;BME280;8731;50.364;8.958;2022-10-31T14:16:55;100162.84;;;19.45;80.09
17230;BME280;8731;50.364;8.958;2022-10-31T14:21:28;100164.44;;;19.43;81.34
17230;BME280;8731;50.364;8.958;2022-10-31T14:25:52;100156.31;;;19.37;82.06
17230;BME280;8731;50.364;8.958;2022-10-31T14:30:18;100159.00;;;19.39;82.26
17230;BME280;8731;50.364;8.958;2022-10-31T14:34:50;100155.91;;;19.44;81.73
17230;BME280;8731;50.364;8.958;2022-10-31T14:39:19;100151.06;;;19.36;81.02
17230;BME280;8731;50.364;8.958;2022-10-31T14:44:00;100146.81;;;19.36;80.71
17230;BME280;8731;50.364;8.958;2022-10-31T14:48:53;100133.22;;;19.24;79.87
17230;BME280;8731;50.364;8.958;2022-10-31T14:53:29;100140.59;;;19.18;80.84
17230;BME280;8731;50.364;8.958;2022-10-31T14:57:57;100135.63;;;19.21;81.68
17230;BME280;8731;50.364;8.958;2022-10-31T15:02:26;100132.88;;;19.18;82.04
17230;BME280;8731;50.364;8.958;2022-10-31T15:06:53;100133.28;;;19.11;82.02
17230;BME280;8731;50.364;8.958;2022-10-31T15:11:22;100111.31;;;19.02;82.66
17230;BME280;8731;50.364;8.958;2022-10-31T15:15:48;100098.25;;;18.99;82.48
17230;BME280;8731;50.364;8.958;2022-10-31T15:20:17;100118.31;;;18.90;82.83
17230;BME280;8731;50.364;8.958;2022-10-31T15:24:44;100134.34;;;18.85;83.60
17230;BME280;8731;50.364;8.958;2022-10-31T15:29:12;100123.16;;;18.69;84.47
17230;BME280;8731;50.364;8.958;2022-10-31T15:33:41;100123.91;;;18.68;83.93
17230;BME280;8731;50.364;8.958;2022-10-31T15:38:07;100122.34;;;18.70;83.58
17230;BME280;8731;50.364;8.958;2022-10-31T15:42:35;100122.59;;;18.75;83.90
17230;BME280;8731;50.364;8.958;2022-10-31T15:47:04;100122.75;;;18.63;84.60
17230;BME280;8731;50.364;8.958;2022-10-31T15:51:32;100114.22;;;18.64;84.20
17230;BME280;8731;50.364;8.958;2022-10-31T15:55:59;100104.56;;;18.47;84.83
17230;BME280;8731;50.364;8.958;2022-10-31T16:00:25;100113.41;;;18.37;84.89
17230;BME280;8731;50.364;8.958;2022-10-31T16:04:52;100118.16;;;18.17;86.82
17230;BME280;8731;50.364;8.958;2022-10-31T16:09:21;100126.16;;;18.21;85.41
17230;BME280;8731;50.364;8.958;2022-10-31T16:13:53;100129.41;;;18.04;85.49
17230;BME280;8731;50.364;8.958;2022-10-31T16:18:18;100138.31;;;17.96;85.91
17230;BME280;8731;50.364;8.958;2022-10-31T16:22:40;100119.13;;;17.91;85.63
17230;BME280;8731;50.364;8.958;2022-10-31T16:27:17;100115.78;;;17.78;85.46
17230;BME280;8731;50.364;8.958;2022-10-31T16:31:45;100118.84;;;17.73;85.50
17230;BME280;8731;50.364;8.958;2022-10-31T16:36:29;100124.19;;;17.63;86.06
17230;BME280;8731;50.364;8.958;2022-10-31T16:40:53;100116.78;;;17.54;85.56
17230;BME280;8731;50.364;8.958;2022-10-31T16:45:19;100110.63;;;17.39;86.80
17230;BME280;8731;50.364;8.958;2022-10-31T16:49:43;100110.94;;;17.30;86.37
17230;BME280;8731;50.364;8.958;2022-10-31T16:54:08;100105.28;;;17.23;87.45
17230;BME280;8731;50.364;8.958;2022-10-31T16:58:32;100096.94;;;17.00;89.54
17230;BME280;8731;50.364;8.958;2022-10-31T17:02:57;100064.31;;;16.99;89.29
17230;BME280;8731;50.364;8.958;2022-10-31T17:07:19;100036.88;;;16.73;91.90
17230;BME280;8731;50.364;8.958;2022-10-31T17:11:44;100031.84;;;16.75;88.90
17230;BME280;8731;50.364;8.958;2022-10-31T17:16:08;99978.84;;;16.25;96.53
17230;BME280;8731;50.364;8.958;2022-10-31T17:20:35;99965.09;;;16.25;95.49
17230;BME280;8731;50.364;8.958;2022-10-31T17:24:57;99952.28;;;16.51;90.27
17230;BME280;8731;50.364;8.958;2022-10-31T17:29:19;99924.03;;;16.65;86.84
17230;BME280;8731;50.364;8.958;2022-10-31T17:33:42;99945.38;;;16.64;86.48
17230;BME280;8731;50.364;8.958;2022-10-31T17:38:05;99974.28;;;16.73;85.07
17230;BME280;8731;50.364;8.958;2022-10-31T17:42:27;99990.69;;;16.75;84.63
17230;BME280;8731;50.364;8.958;2022-10-31T17:46:50;99988.91;;;16.74;84.56
17230;BME280;8731;50.364;8.958;2022-10-31T17:51:12;99996.25;;;16.68;82.48
17230;BME280;8731;50.364;8.958;2022-10-31T17:55:36;100006.44;;;16.66;84.29
17230;BME280;8731;50.364;8.958;2022-10-31T17:59:58;100002.56;;;16.73;84.11
17230;BME280;8731;50.364;8.958;2022-10-31T18:04:21;100004.16;;;16.71;83.42
17230;BME280;8731;50.364;8.958;2022-10-31T18:08:43;100017.75;;;16.56;83.45
17230;BME280;8731;50.364;8.958;2022-10-31T18:13:07;100040.44;;;16.37;82.80
17230;BME280;8731;50.364;8.958;2022-10-31T18:17:29;100032.56;;;16.47;83.84
17230;BME280;8731;50.364;8.958;2022-10-31T18:21:51;100041.06;;;16.46;84.29
17230;BME280;8731;50.364;8.958;2022-10-31T18:26:14;100029.19;;;16.10;86.23
17230;BME280;8731;50.364;8.958;2022-10-31T18:30:39;100025.75;;;16.23;85.39
17230;BME280;8731;50.364;8.958;2022-10-31T18:35:02;99989.94;;;16.00;86.79
17230;BME280;8731;50.364;8.958;2022-10-31T18:39:25;99996.63;;;15.98;86.91
17230;BME280;8731;50.364;8.958;2022-10-31T18:43:47;100005.13;;;15.96;87.06
17230;BME280;8731;50.364;8.958;2022-10-31T18:48:12;100006.41;;;15.90;86.56
17230;BME280;8731;50.364;8.958;2022-10-31T18:52:36;100004.22;;;15.71;87.10
17230;BME280;8731;50.364;8.958;2022-10-31T18:56:59;99988.72;;;15.58;88.25
17230;BME280;8731;50.364;8.958;2022-10-31T19:01:21;99981.13;;;15.71;86.37
17230;BME280;8731;50.364;8.958;2022-10-31T19:05:44;99988.94;;;15.61;86.14
17230;BME280;8731;50.364;8.958;2022-10-31T19:10:07;99977.34;;;15.54;86.34
17230;BME280;8731;50.364;8.958;2022-10-31T19:14:30;99971.69;;;15.47;86.00
17230;BME280;8731;50.364;8.958;2022-10-31T19:18:53;99961.91;;;15.41;86.13
17230;BME280;8731;50.364;8.958;2022-10-31T19:23:17;99956.00;;;15.30;86.14
17230;BME280;8731;50.364;8.958;2022-10-31T19:27:40;99947.88;;;15.24;86.87
17230;BME280;8731;50.364;8.958;2022-10-31T19:32:02;99949.81;;;15.15;87.14
17230;BME280;8731;50.364;8.958;2022-10-31T19:36:25;99966.88;;;15.03;87.38
17230;BME280;8731;50.364;8.958;2022-10-31T19:40:54;99980.94;;;14.96;88.29
17230;BME280;8731;50.364;8.958;2022-10-31T19:45:18;99990.72;;;14.90;88.19
17230;BME280;8731;50.364;8.958;2022-10-31T19:49:40;99996.41;;;14.86;87.79
17230;BME280;8731;50.364;8.958;2022-10-31T19:54:03;100010.25;;;14.77;88.35
17230;BME280;8731;50.364;8.958;2022-10-31T19:58:27;100024.38;;;14.48;88.58
17230;BME280;8731;50.364;8.958;2022-10-31T20:02:53;100023.81;;;14.52;88.70
17230;BME280;8731;50.364;8.958;2022-10-31T20:07:15;100014.22;;;14.50;88.03
17230;BME280;8731;50.364;8.958;2022-10-31T20:11:38;100020.81;;;14.46;88.38
17230;BME280;8731;50.364;8.958;2022-10-31T20:16:05;100018.38;;;14.37;88.13
17230;BME280;8731;50.364;8.958;2022-10-31T20:20:30;100024.06;;;14.33;88.55
17230;BME280;8731;50.364;8.958;2022-10-31T20:24:53;100020.34;;;14.18;89.43
17230;BME280;8731;50.364;8.958;2022-10-31T20:29:15;100022.13;;;14.19;88.27
17230;BME280;8731;50.364;8.958;2022-10-31T20:33:40;100029.47;;;14.14;87.95
17230;BME280;8731;50.364;8.958;2022-10-31T20:38:02;100038.59;;;14.11;87.50
17230;BME280;8731;50.364;8.958;2022-10-31T20:42:26;100045.69;;;14.03;87.45
17230;BME280;8731;50.364;8.958;2022-10-31T20:46:48;100042.78;;;13.99;88.36
17230;BME280;8731;50.364;8.958;2022-10-31T20:51:13;100038.22;;;13.73;92.38
17230;BME280;8731;50.364;8.958;2022-10-31T20:55:37;100042.91;;;13.78;91.83
17230;BME280;8731;50.364;8.958;2022-10-31T21:00:00;100042.00;;;13.78;91.14
17230;BME280;8731;50.364;8.958;2022-10-31T21:04:22;100049.69;;;13.78;90.70
17230;BME280;8731;50.364;8.958;2022-10-31T21:08:46;100045.13;;;13.74;92.09
17230;BME280;8731;50.364;8.958;2022-10-31T21:13:08;100050.63;;;13.68;92.63
17230;BME280;8731;50.364;8.958;2022-10-31T21:17:31;100046.63;;;13.72;91.79
17230;BME280;8731;50.364;8.958;2022-10-31T21:21:53;100037.31;;;13.50;94.26
17230;BME280;8731;50.364;8.958;2022-10-31T21:26:18;100038.88;;;13.38;94.85
17230;BME280;8731;50.364;8.958;2022-10-31T21:30:43;100045.47;;;13.46;93.26
17230;BME280;8731;50.364;8.958;2022-10-31T21:35:09;100039.31;;;13.55;92.51
17230;BME280;8731;50.364;8.958;2022-10-31T21:39:31;100032.69;;;13.46;93.61
17230;BME280;8731;50.364;8.958;2022-10-31T21:43:55;100034.25;;;13.44;93.27
17230;BME280;8731;50.364;8.958;2022-10-31T21:48:18;100026.63;;;13.34;94.01
17230;BME280;8731;50.364;8.958;2022-10-31T21:52:41;100030.97;;;13.35;92.62
17230;BME280;8731;50.364;8.958;2022-10-31T21:57:03;100023.53;;;13.38;91.28
17230;BME280;8731;50.364;8.958;2022-10-31T22:01:28;100019.72;;;13.33;93.16
17230;BME280;8731;50.364;8.958;2022-10-31T22:05:50;100021.53;;;13.24;93.36
17230;BME280;8731;50.364;8.958;2022-10-31T22:10:12;100009.78;;;12.74;96.20
17230;BME280;8731;50.364;8.958;2022-10-31T22:14:35;100006.03;;;12.90;95.26
17230;BME280;8731;50.364;8.958;2022-10-31T22:18:59;100018.03;;;13.02;94.31
17230;BME280;8731;50.364;8.958;2022-10-31T22:23:24;100014.59;;;13.01;93.55
17230;BME280;8731;50.364;8.958;2022-10-31T22:27:46;100000.16;;;13.02;92.64
17230;BME280;8731;50.364;8.958;2022-10-31T22:32:08;99992.97;;;12.98;93.54
17230;BME280;8731;50.364;8.958;2022-10-31T22:36:36;99993.09;;;12.99;93.04
17230;BME280;8731;50.364;8.958;2022-10-31T22:40:58;99979.06;;;13.04;93.73
17230;BME280;8731;50.364;8.958;2022-10-31T22:45:22;99975.84;;;13.07;95.25
17230;BME280;8731;50.364;8.958;2022-10-31T22:49:44;99961.53;;;13.09;95.74
17230;BME280;8731;50.364;8.958;2022-10-31T22:54:11;99949.97;;;13.14;97.40
17230;BME280;8731;50.364;8.958;2022-10-31T22:58:35;99948.31;;;13.14;99.28
17230;BME280;8731;50.364;8.958;2022-10-31T23:02:58;99955.59;;;13.20;97.89
17230;BME280;8731;50.364;8.958;2022-10-31T23:07:20;99947.94;;;13.20;97.37
17230;BME280;8731;50.364;8.958;2022-10-31T23:11:44;99956.72;;;13.24;97.02
17230;BME280;8731;50.364;8.958;2022-10-31T23:16:07;99970.41;;;13.24;97.44
17230;BME280;8731;50.364;8.958;2022-10-31T23:20:30;99980.63;;;13.24;97.92
17230;BME280;8731;50.364;8.958;2022-10-31T23:24:52;99974.25;;;13.29;96.44
17230;BME280;8731;50.364;8.958;2022-10-31T23:29:16;99968.13;;;13.27;96.84
17230;BME280;8731;50.364;8.958;2022-10-31T23:33:38;99970.19;;;13.11;97.95
17230;BME280;8731;50.364;8.958;2022-10-31T23:38:00;99965.16;;;12.90;95.50
17230;BME280;8731;50.364;8.958;2022-10-31T23:42:23;99965.50;;;13.05;94.81
17230;BME280;8731;50.364;8.958;2022-10-31T23:46:48;99963.09;;;12.97;94.61